createdAt,value
2023-05-24T00:01:31.251Z,100.00
2023-05-24T00:04:01.121Z,100.00
2023-05-24T00:06:30.234Z,100.00
2023-05-24T00:08:58.398Z,100.00
2023-05-24T00:11:27.841Z,100.00
2023-05-24T00:13:56.022Z,100.00
2023-05-24T00:16:24.563Z,100.00
2023-05-24T00:18:52.715Z,100.00
2023-05-24T00:21:21.196Z,100.00
2023-05-24T00:23:52.359Z,100.00
2023-05-24T00:26:20.460Z,100.00
2023-05-24T00:28:56.195Z,100.00
2023-05-24T00:31:24.391Z,100.00
2023-05-24T00:33:52.398Z,100.00
2023-05-24T00:36:20.528Z,100.00
2023-05-24T00:38:49.904Z,100.00
2023-05-24T00:41:17.902Z,100.00
2023-05-24T00:43:46.230Z,100.00
2023-05-24T00:46:38.118Z,100.00
2023-05-24T00:49:06.332Z,100.00
2023-05-24T00:51:37.196Z,100.00
2023-05-24T00:54:07.434Z,100.00
2023-05-24T00:56:35.710Z,100.00
2023-05-24T00:59:04.356Z,100.00
2023-05-24T01:01:35.650Z,100.00
2023-05-24T01:04:05.775Z,100.00
2023-05-24T01:07:07.866Z,100.00
2023-05-24T01:09:59.423Z,100.00
2023-05-24T01:13:16.464Z,100.00
2023-05-24T01:16:18.631Z,100.00
2023-05-24T01:18:58.137Z,100.00
2023-05-24T01:21:51.959Z,100.00
2023-05-24T01:24:38.092Z,100.00
2023-05-24T01:27:17.775Z,100.00
2023-05-24T01:29:53.497Z,100.00
2023-05-24T01:32:21.991Z,100.00
2023-05-24T01:34:50.000Z,100.00
2023-05-24T01:37:18.093Z,100.00
2023-05-24T01:39:48.518Z,100.00
2023-05-24T01:42:44.893Z,100.00
2023-05-24T01:45:24.462Z,100.00
2023-05-24T01:48:04.961Z,100.00
2023-05-24T01:50:41.659Z,100.00
2023-05-24T01:53:18.347Z,100.00
2023-05-24T01:55:51.648Z,100.00
2023-05-24T01:58:21.410Z,100.00
2023-05-24T02:00:51.319Z,100.00
2023-05-24T02:03:20.072Z,100.00
2023-05-24T02:05:48.685Z,100.00
2023-05-24T02:08:17.707Z,100.00
2023-05-24T02:10:46.713Z,100.00
2023-05-24T02:13:16.633Z,100.00
2023-05-24T02:15:44.952Z,100.00
2023-05-24T02:18:14.985Z,100.00
2023-05-24T02:20:43.942Z,100.00
2023-05-24T02:23:12.084Z,100.00
2023-05-24T02:25:40.189Z,100.00
2023-05-24T02:28:09.053Z,100.00
2023-05-24T02:30:38.447Z,100.00
2023-05-24T02:33:06.764Z,100.00
2023-05-24T02:35:35.172Z,100.00
2023-05-24T02:38:06.647Z,100.00
2023-05-24T02:40:35.350Z,100.00
2023-05-24T02:43:03.558Z,100.00
2023-05-24T02:45:31.598Z,100.00
2023-05-24T02:47:59.703Z,100.00
2023-05-24T02:50:27.988Z,100.00
2023-05-24T02:52:55.990Z,100.00
2023-05-24T02:55:24.777Z,100.00
2023-05-24T02:57:54.149Z,100.00
2023-05-24T03:00:23.248Z,100.00
2023-05-24T03:02:52.982Z,100.00
2023-05-24T03:05:21.430Z,100.00
2023-05-24T03:07:49.429Z,100.00
2023-05-24T03:10:17.902Z,100.00
2023-05-24T03:12:46.010Z,100.00
2023-05-24T03:15:14.115Z,100.00
2023-05-24T03:17:42.212Z,100.00
2023-05-24T03:20:11.821Z,100.00
2023-05-24T03:22:40.021Z,100.00
2023-05-24T03:25:08.960Z,100.00
2023-05-24T03:27:37.477Z,100.00
2023-05-24T03:30:06.871Z,100.00
2023-05-24T03:32:42.846Z,100.00
2023-05-24T03:35:12.312Z,100.00
2023-05-24T03:37:40.663Z,100.00
2023-05-24T03:40:09.441Z,100.00
2023-05-24T03:42:53.571Z,100.00
2023-05-24T03:45:38.612Z,100.00
2023-05-24T03:48:07.985Z,100.00
2023-05-24T03:50:36.437Z,100.00
2023-05-24T03:53:04.649Z,100.00
2023-05-24T03:55:32.664Z,100.00
2023-05-24T03:58:00.912Z,100.00
2023-05-24T04:00:29.738Z,100.00
2023-05-24T04:02:58.106Z,100.00
2023-05-24T04:05:31.721Z,100.00
2023-05-24T04:08:00.707Z,100.00
2023-05-24T04:10:29.645Z,100.00
2023-05-24T04:12:57.912Z,100.00
2023-05-24T04:15:26.370Z,100.00
2023-05-24T04:17:55.680Z,100.00
2023-05-24T04:20:25.988Z,100.00
2023-05-24T04:22:56.198Z,100.00
2023-05-24T04:25:24.506Z,100.00
2023-05-24T04:27:52.640Z,100.00
2023-05-24T04:30:21.620Z,100.00
2023-05-24T04:32:49.719Z,100.00
2023-05-24T04:35:19.891Z,100.00
2023-05-24T04:37:52.648Z,100.00
2023-05-24T04:40:21.631Z,100.00
2023-05-24T04:42:50.900Z,100.00
2023-05-24T04:45:19.118Z,100.00
2023-05-24T04:47:47.231Z,100.00
2023-05-24T04:50:15.382Z,100.00
2023-05-24T04:52:43.498Z,100.00
2023-05-24T04:55:11.805Z,100.00
2023-05-24T04:57:39.812Z,100.00
2023-05-24T05:00:08.653Z,100.00
2023-05-24T05:02:37.774Z,100.00
2023-05-24T05:05:06.585Z,100.00
2023-05-24T05:07:34.987Z,100.00
2023-05-24T05:10:03.177Z,100.00
2023-05-24T05:12:31.413Z,100.00
2023-05-24T05:14:59.574Z,100.00
2023-05-24T05:17:27.919Z,100.00
2023-05-24T05:19:56.707Z,100.00
2023-05-24T05:22:24.893Z,100.00
2023-05-24T05:24:53.632Z,100.00
2023-05-24T05:27:21.768Z,100.00
2023-05-24T05:29:50.185Z,100.00
2023-05-24T05:32:18.532Z,100.00
2023-05-24T05:34:47.125Z,100.00
2023-05-24T05:37:15.550Z,100.00
2023-05-24T05:39:43.853Z,100.00
2023-05-24T05:42:13.404Z,100.00
2023-05-24T05:44:41.708Z,100.00
2023-05-24T05:47:10.301Z,100.00
2023-05-24T05:49:38.730Z,100.00
2023-05-24T05:52:06.957Z,100.00
2023-05-24T05:54:35.691Z,100.00
2023-05-24T05:57:04.106Z,100.00
2023-05-24T05:59:36.401Z,100.00
2023-05-24T06:02:08.085Z,100.00
2023-05-24T06:04:36.180Z,100.00
2023-05-24T06:07:04.809Z,100.00
2023-05-24T06:09:32.837Z,100.00
2023-05-24T06:12:02.333Z,100.00
2023-05-24T06:14:31.837Z,100.00
2023-05-24T06:17:00.506Z,100.00
2023-05-24T06:19:28.752Z,100.00
2023-05-24T06:21:57.780Z,100.00
2023-05-24T06:24:28.744Z,100.00
2023-05-24T06:26:57.269Z,100.00
2023-05-24T06:29:25.959Z,100.00
2023-05-24T06:31:54.175Z,100.00
2023-05-24T06:34:22.527Z,100.00
2023-05-24T06:36:53.172Z,100.00
2023-05-24T06:39:21.446Z,100.00
2023-05-24T06:41:51.689Z,100.00
2023-05-24T06:44:32.314Z,100.00
2023-05-24T06:47:02.369Z,100.00
2023-05-24T06:49:30.625Z,100.00
2023-05-24T06:51:58.768Z,100.00
2023-05-24T06:54:27.053Z,100.00
2023-05-24T06:56:55.949Z,100.00
2023-05-24T06:59:24.413Z,100.00
2023-05-24T07:01:59.393Z,100.00
2023-05-24T07:04:29.484Z,100.00
2023-05-24T07:06:58.646Z,100.00
2023-05-24T07:09:27.049Z,100.00
2023-05-24T07:11:55.549Z,100.00
2023-05-24T07:14:26.259Z,100.00
2023-05-24T07:16:57.803Z,100.00
2023-05-24T07:19:29.821Z,100.00
2023-05-24T07:21:58.558Z,100.00
2023-05-24T07:24:27.055Z,100.00
2023-05-24T07:26:56.937Z,100.00
2023-05-24T07:29:26.313Z,100.00
2023-05-24T07:31:56.516Z,100.00
2023-05-24T07:34:27.970Z,99.56
2023-05-24T07:37:01.012Z,99.89
2023-05-24T07:39:29.358Z,98.63
2023-05-24T07:41:57.696Z,96.71
2023-05-24T07:44:27.227Z,94.82
2023-05-24T07:46:56.077Z,95.21
2023-05-24T07:49:24.520Z,95.21
2023-05-24T07:51:53.217Z,94.28
2023-05-24T07:54:21.733Z,92.64
2023-05-24T07:56:50.453Z,91.99
2023-05-24T07:59:19.325Z,93.52
2023-05-24T08:01:47.998Z,94.80
2023-05-24T08:04:16.395Z,94.21
2023-05-24T08:06:46.999Z,93.26
2023-05-24T08:09:15.365Z,92.88
2023-05-24T08:11:43.537Z,91.77
2023-05-24T08:14:11.994Z,90.31
2023-05-24T08:16:40.393Z,90.31
2023-05-24T08:19:08.790Z,90.64
2023-05-24T08:21:37.885Z,92.31
2023-05-24T08:24:08.525Z,93.29
2023-05-24T08:26:38.385Z,93.64
2023-05-24T08:29:07.083Z,94.08
2023-05-24T08:31:35.290Z,96.74
2023-05-24T08:34:05.024Z,94.58
2023-05-24T08:36:33.225Z,96.92
2023-05-24T08:39:01.349Z,96.88
2023-05-24T08:41:29.776Z,99.00
2023-05-24T08:44:02.972Z,99.64
2023-05-24T08:46:33.335Z,98.32
2023-05-24T08:49:04.159Z,96.70
2023-05-24T08:51:34.052Z,99.79
2023-05-24T08:54:04.693Z,100.00
2023-05-24T08:56:33.994Z,100.00
2023-05-24T08:59:02.234Z,100.00
2023-05-24T09:01:32.299Z,100.00
2023-05-24T09:04:03.993Z,100.00
2023-05-24T09:06:34.428Z,100.00
2023-05-24T09:09:04.893Z,100.00
2023-05-24T09:11:34.248Z,100.00
2023-05-24T09:14:03.196Z,100.00
2023-05-24T09:16:31.478Z,100.00
2023-05-24T09:18:59.624Z,100.00
2023-05-24T09:21:27.974Z,100.00
2023-05-24T09:23:56.305Z,100.00
2023-05-24T09:26:25.490Z,100.00
2023-05-24T09:28:56.697Z,100.00
2023-05-24T09:31:39.788Z,100.00
2023-05-24T09:34:16.964Z,100.00
2023-05-24T09:36:48.683Z,100.00
2023-05-24T09:39:20.892Z,100.00
2023-05-24T09:41:57.134Z,100.00
2023-05-24T09:44:29.869Z,100.00
2023-05-24T09:47:07.576Z,100.00
2023-05-24T09:49:39.094Z,100.00
2023-05-24T09:52:07.381Z,100.00
2023-05-24T09:54:37.216Z,100.00
2023-05-24T09:57:07.292Z,100.00
2023-05-24T09:59:36.088Z,100.00
2023-05-24T10:02:13.992Z,100.00
2023-05-24T10:04:42.744Z,100.00
2023-05-24T10:07:12.464Z,100.00
2023-05-24T10:09:42.328Z,100.00
2023-05-24T10:12:10.638Z,100.00
2023-05-24T10:14:39.460Z,100.00
2023-05-24T10:17:08.590Z,100.00
2023-05-24T10:19:38.295Z,100.00
2023-05-24T10:22:09.084Z,100.00
2023-05-24T10:24:43.088Z,100.00
2023-05-24T10:27:18.600Z,100.00
2023-05-24T10:30:12.119Z,100.00
2023-05-24T10:32:44.820Z,100.00
2023-05-24T10:35:15.340Z,100.00
2023-05-24T10:37:46.136Z,100.00
2023-05-24T10:40:20.445Z,98.83
2023-05-24T10:42:48.892Z,100.00
2023-05-24T10:45:33.074Z,100.00
2023-05-24T10:48:30.162Z,99.74
2023-05-24T10:51:02.709Z,97.77
2023-05-24T10:53:40.339Z,95.67
2023-05-24T10:56:10.492Z,95.29
2023-05-24T10:58:44.862Z,97.02
2023-05-24T11:01:34.069Z,93.80
2023-05-24T11:04:12.166Z,94.09
2023-05-24T11:07:10.315Z,90.69
2023-05-24T11:09:57.061Z,92.06
2023-05-24T11:12:39.015Z,89.36
2023-05-24T11:15:10.582Z,91.05
2023-05-24T11:18:14.217Z,88.15
2023-05-24T11:20:45.959Z,88.75
2023-05-24T11:23:17.214Z,90.33
2023-05-24T11:25:48.406Z,88.20
2023-05-24T11:28:17.385Z,87.26
2023-05-24T11:30:48.158Z,84.20
2023-05-24T11:33:20.228Z,83.07
2023-05-24T11:35:53.143Z,80.67
2023-05-24T11:38:24.928Z,80.33
2023-05-24T11:40:53.756Z,80.52
2023-05-24T11:43:22.763Z,78.92
2023-05-24T11:45:52.839Z,75.64
2023-05-24T11:48:21.355Z,75.04
2023-05-24T11:50:50.528Z,76.38
2023-05-24T11:53:22.550Z,76.20
2023-05-24T11:55:51.777Z,73.07
2023-05-24T11:58:33.124Z,73.64
2023-05-24T12:01:02.947Z,71.79
2023-05-24T12:03:32.824Z,71.29
2023-05-24T12:06:02.047Z,74.58
2023-05-24T12:08:31.004Z,73.14
2023-05-24T12:10:59.640Z,73.40
2023-05-24T12:13:30.662Z,71.60
2023-05-24T12:15:59.085Z,69.84
2023-05-24T12:18:27.425Z,69.53
2023-05-24T12:20:56.090Z,69.90
2023-05-24T12:23:32.205Z,68.41
2023-05-24T12:26:01.421Z,68.07
2023-05-24T12:28:37.076Z,69.30
2023-05-24T12:31:06.709Z,69.10
2023-05-24T12:33:35.914Z,64.06
2023-05-24T12:36:04.476Z,63.56
2023-05-24T12:38:34.020Z,62.06
2023-05-24T12:43:33.465Z,58.61
2023-05-24T12:46:02.075Z,63.05
2023-05-24T12:48:30.225Z,57.71
2023-05-24T12:50:58.776Z,57.62
2023-05-24T12:53:27.053Z,59.04
2023-05-24T12:55:56.334Z,59.52
2023-05-24T12:58:24.661Z,56.07
2023-05-24T13:00:52.931Z,58.13
2023-05-24T13:03:21.282Z,58.34
2023-05-24T13:05:49.609Z,57.56
2023-05-24T13:08:18.363Z,56.13
2023-05-24T13:10:46.594Z,58.38
2023-05-24T13:13:15.025Z,57.87
2023-05-24T13:15:44.905Z,57.68
2023-05-24T13:18:13.542Z,55.75
2023-05-24T13:20:42.761Z,57.80
2023-05-24T13:23:11.440Z,57.35
2023-05-24T13:25:41.054Z,56.02
2023-05-24T13:28:09.473Z,55.09
2023-05-24T13:30:37.770Z,55.68
2023-05-24T13:33:06.391Z,55.62
2023-05-24T13:35:36.149Z,57.34
2023-05-24T13:38:05.962Z,57.03
2023-05-24T13:40:40.801Z,57.51
2023-05-24T13:43:11.022Z,58.03
2023-05-24T13:45:39.834Z,56.71
2023-05-24T13:48:08.510Z,56.21
2023-05-24T13:50:38.119Z,56.75
2023-05-24T13:53:07.066Z,54.62
2023-05-24T13:55:38.959Z,55.94
2023-05-24T13:58:07.185Z,54.69
2023-05-24T14:00:36.255Z,53.64
2023-05-24T14:03:06.249Z,55.79
2023-05-24T14:05:37.024Z,56.18
2023-05-24T14:08:07.102Z,55.51
2023-05-24T14:10:37.321Z,56.72
2023-05-24T14:15:37.991Z,55.89
2023-05-24T14:18:08.797Z,54.23
2023-05-24T14:20:38.198Z,52.87
2023-05-24T14:23:08.128Z,53.52
2023-05-24T14:25:36.880Z,53.27
2023-05-24T14:28:05.605Z,54.21
2023-05-24T14:30:33.947Z,53.49
2023-05-24T14:33:03.092Z,53.58
2023-05-24T14:35:38.534Z,54.13
2023-05-24T14:38:11.677Z,56.05
2023-05-24T14:40:41.607Z,55.08
2023-05-24T14:43:10.958Z,54.98
2023-05-24T14:45:42.267Z,55.14
2023-05-24T14:48:12.426Z,54.42
2023-05-24T14:50:41.447Z,55.42
2023-05-24T14:53:12.761Z,53.82
2023-05-24T14:55:43.302Z,54.10
2023-05-24T14:58:12.564Z,54.19
2023-05-24T15:00:42.518Z,54.66
2023-05-24T15:03:13.694Z,55.02
2023-05-24T15:05:43.220Z,56.36
2023-05-24T15:08:11.850Z,56.39
2023-05-24T15:10:40.889Z,55.24
2023-05-24T15:13:09.515Z,55.34
2023-05-24T15:15:37.822Z,54.72
2023-05-24T15:18:08.242Z,53.98
2023-05-24T15:20:36.882Z,56.94
2023-05-24T15:23:05.335Z,56.01
2023-05-24T15:25:33.601Z,54.38
2023-05-24T15:28:01.859Z,55.10
2023-05-24T15:30:30.362Z,55.70
2023-05-24T15:32:58.643Z,54.06
2023-05-24T15:35:27.117Z,55.02
2023-05-24T15:37:55.900Z,54.35
2023-05-24T15:40:24.870Z,55.79
2023-05-24T15:42:53.198Z,56.43
2023-05-24T15:45:21.563Z,58.27
2023-05-24T15:47:49.947Z,59.42
2023-05-24T15:50:25.848Z,61.36
2023-05-24T15:53:00.232Z,60.19
2023-05-24T15:55:28.682Z,60.06
2023-05-24T15:57:58.582Z,63.37
2023-05-24T16:00:27.096Z,62.94
2023-05-24T16:02:57.069Z,65.69
2023-05-24T16:05:25.646Z,68.48
2023-05-24T16:07:54.188Z,68.49
2023-05-24T16:10:22.559Z,68.47
2023-05-24T16:12:50.906Z,67.51
2023-05-24T16:15:19.334Z,72.31
2023-05-24T16:17:47.560Z,73.04
2023-05-24T16:20:15.639Z,73.96
2023-05-24T16:22:50.125Z,75.91
2023-05-24T16:25:18.407Z,77.00
2023-05-24T16:27:46.682Z,77.87
2023-05-24T16:30:15.383Z,77.41
2023-05-24T16:32:45.408Z,74.86
2023-05-24T16:35:13.511Z,73.14
2023-05-24T16:37:41.818Z,71.69
2023-05-24T16:40:11.026Z,72.39
2023-05-24T16:42:39.976Z,72.14
2023-05-24T16:45:08.993Z,72.05
2023-05-24T16:47:37.540Z,74.77
2023-05-24T16:50:06.898Z,77.35
2023-05-24T16:52:35.346Z,77.01
2023-05-24T16:55:04.614Z,78.93
2023-05-24T16:57:32.924Z,83.12
2023-05-24T17:00:01.884Z,83.31
2023-05-24T17:02:30.822Z,82.49
2023-05-24T17:04:59.668Z,80.96
2023-05-24T17:07:28.482Z,81.95
2023-05-24T17:09:56.977Z,82.94
2023-05-24T17:12:30.205Z,82.55
2023-05-24T17:14:59.171Z,81.02
2023-05-24T17:17:28.023Z,83.55
2023-05-24T17:19:56.939Z,86.89
2023-05-24T17:22:25.904Z,92.79
2023-05-24T17:24:55.269Z,93.49
2023-05-24T17:27:23.958Z,92.48
2023-05-24T17:29:53.777Z,94.11
2023-05-24T17:32:22.959Z,95.06
2023-05-24T17:34:52.022Z,98.49
2023-05-24T17:37:20.579Z,96.10
2023-05-24T17:39:52.492Z,96.06
2023-05-24T17:42:22.436Z,93.21
2023-05-24T17:44:51.287Z,96.93
2023-05-24T17:47:19.767Z,98.69
2023-05-24T17:49:48.591Z,100.00
2023-05-24T17:52:16.947Z,100.00
2023-05-24T17:54:45.154Z,100.00
2023-05-24T17:57:13.596Z,100.00
2023-05-24T17:59:41.905Z,100.00
2023-05-24T18:02:10.393Z,100.00
2023-05-24T18:04:38.941Z,100.00
2023-05-24T18:07:07.348Z,100.00
2023-05-24T18:09:36.016Z,100.00
2023-05-24T18:12:04.698Z,100.00
2023-05-24T18:14:33.988Z,100.00
2023-05-24T18:17:02.263Z,100.00
2023-05-24T18:19:30.895Z,100.00
2023-05-24T18:21:59.284Z,100.00
2023-05-24T18:24:27.707Z,100.00
2023-05-24T18:26:56.686Z,100.00
2023-05-24T18:29:25.326Z,100.00
2023-05-24T18:31:53.980Z,100.00
2023-05-24T18:34:22.896Z,100.00
2023-05-24T18:36:52.631Z,100.00
2023-05-24T18:39:21.027Z,100.00
2023-05-24T18:41:49.797Z,100.00
2023-05-24T18:44:19.983Z,100.00
2023-05-24T18:46:49.589Z,100.00
2023-05-24T18:49:21.741Z,100.00
2023-05-24T18:51:50.061Z,100.00
2023-05-24T18:54:18.254Z,100.00
2023-05-24T18:56:47.137Z,100.00
2023-05-24T18:59:16.906Z,100.00
2023-05-24T19:01:45.464Z,100.00
2023-05-24T19:04:14.086Z,100.00
2023-05-24T19:06:42.446Z,100.00
2023-05-24T19:09:10.877Z,100.00
2023-05-24T19:11:39.628Z,100.00
2023-05-24T19:14:09.903Z,100.00
2023-05-24T19:16:38.344Z,100.00
2023-05-24T19:19:08.763Z,100.00
2023-05-24T19:21:37.656Z,100.00
2023-05-24T19:24:06.527Z,100.00
2023-05-24T19:26:35.078Z,100.00
2023-05-24T19:29:04.316Z,100.00
2023-05-24T19:31:36.342Z,100.00
2023-05-24T19:34:04.867Z,100.00
2023-05-24T19:36:33.307Z,100.00
2023-05-24T19:39:02.122Z,100.00
2023-05-24T19:41:30.955Z,100.00
2023-05-24T19:43:59.416Z,100.00
2023-05-24T19:46:28.141Z,100.00
2023-05-24T19:48:56.657Z,100.00
2023-05-24T19:51:24.970Z,100.00
2023-05-24T19:53:54.229Z,100.00
2023-05-24T19:56:23.762Z,100.00
2023-05-24T19:58:52.566Z,100.00
2023-05-24T20:01:21.181Z,100.00
2023-05-24T20:03:49.739Z,100.00
2023-05-24T20:06:18.608Z,100.00
2023-05-24T20:08:47.299Z,100.00
2023-05-24T20:11:16.061Z,100.00
2023-05-24T20:13:44.748Z,100.00
2023-05-24T20:16:13.889Z,100.00
2023-05-24T20:18:42.973Z,100.00
2023-05-24T20:21:13.818Z,100.00
2023-05-24T20:23:43.752Z,100.00
2023-05-24T20:26:13.359Z,100.00
2023-05-24T20:28:42.809Z,100.00
2023-05-24T20:31:13.478Z,100.00
2023-05-24T20:33:42.726Z,100.00
2023-05-24T20:36:15.986Z,100.00
2023-05-24T20:38:44.637Z,100.00
2023-05-24T20:41:12.788Z,100.00
2023-05-24T20:43:41.380Z,100.00
2023-05-24T20:46:09.673Z,100.00
2023-05-24T20:48:39.771Z,100.00
2023-05-24T20:51:08.957Z,100.00
2023-05-24T20:53:38.205Z,100.00
2023-05-24T20:56:10.184Z,100.00
2023-05-24T20:58:41.541Z,100.00
2023-05-24T21:01:09.878Z,100.00
2023-05-24T21:03:38.541Z,100.00
2023-05-24T21:06:07.120Z,100.00
2023-05-24T21:08:35.508Z,100.00
2023-05-24T21:11:03.949Z,100.00
2023-05-24T21:13:33.497Z,100.00
2023-05-24T21:16:03.300Z,100.00
2023-05-24T21:18:33.646Z,100.00
2023-05-24T21:21:02.211Z,100.00
2023-05-24T21:23:32.025Z,100.00
2023-05-24T21:26:00.403Z,100.00
2023-05-24T21:28:29.216Z,100.00
2023-05-24T21:30:57.832Z,100.00
2023-05-24T21:33:26.555Z,100.00
2023-05-24T21:35:55.120Z,100.00
2023-05-24T21:38:24.493Z,100.00
2023-05-24T21:40:52.989Z,100.00
2023-05-24T21:43:21.401Z,100.00
2023-05-24T21:45:49.838Z,100.00
2023-05-24T21:48:18.577Z,100.00
2023-05-24T21:50:46.836Z,100.00
2023-05-24T21:53:15.031Z,100.00
2023-05-24T21:55:43.610Z,100.00
2023-05-24T21:58:11.907Z,100.00
2023-05-24T22:00:40.165Z,100.00
2023-05-24T22:03:08.391Z,100.00
2023-05-24T22:05:36.504Z,100.00
2023-05-24T22:08:04.622Z,100.00
2023-05-24T22:10:32.900Z,100.00
2023-05-24T22:13:01.943Z,100.00
2023-05-24T22:15:31.250Z,100.00
2023-05-24T22:18:01.636Z,100.00
2023-05-24T22:20:32.007Z,100.00
2023-05-24T22:23:00.914Z,100.00
2023-05-24T22:25:29.409Z,100.00
2023-05-24T22:27:57.465Z,100.00
2023-05-24T22:30:26.419Z,100.00
2023-05-24T22:32:56.009Z,100.00
2023-05-24T22:35:24.233Z,100.00
2023-05-24T22:37:52.291Z,100.00
2023-05-24T22:40:20.653Z,100.00
2023-05-24T22:42:48.700Z,100.00
2023-05-24T22:45:18.687Z,100.00
2023-05-24T22:47:50.830Z,100.00
2023-05-24T22:50:19.200Z,100.00
2023-05-24T22:52:48.700Z,100.00
2023-05-24T22:55:17.201Z,100.00
2023-05-24T22:57:46.569Z,100.00
2023-05-24T23:00:15.616Z,100.00
2023-05-24T23:02:44.213Z,100.00
2023-05-24T23:05:12.424Z,100.00
2023-05-24T23:07:40.503Z,100.00
2023-05-24T23:10:09.572Z,100.00
2023-05-24T23:12:42.456Z,100.00
2023-05-24T23:15:18.486Z,100.00
2023-05-24T23:17:47.225Z,100.00
2023-05-24T23:20:15.500Z,100.00
2023-05-24T23:22:43.970Z,100.00
2023-05-24T23:25:13.376Z,100.00
2023-05-24T23:27:41.715Z,100.00
2023-05-24T23:30:10.498Z,100.00
2023-05-24T23:32:41.342Z,100.00
2023-05-24T23:35:09.700Z,100.00
2023-05-24T23:37:37.825Z,100.00
2023-05-24T23:40:07.086Z,100.00
2023-05-24T23:42:36.402Z,100.00
2023-05-24T23:45:05.320Z,100.00
2023-05-24T23:47:33.470Z,100.00
2023-05-24T23:50:01.578Z,100.00
2023-05-24T23:52:30.085Z,100.00
2023-05-24T23:54:58.310Z,100.00
2023-05-24T23:57:27.177Z,100.00
2023-05-24T23:59:56.937Z,100.00
